sensor_id;sensor_type;location;lat;lon;timestamp;P1;durP1;ratioP1;P2;durP2;ratioP2
12950;SDS011;6540;50.858;7.232;2023-04-29T00:01:13;9.50;;;7.23;;
12950;SDS011;6540;50.858;7.232;2023-04-29T00:03:39;7.87;;;6.77;;
12950;SDS011;6540;50.858;7.232;2023-04-29T00:06:04;9.77;;;6.70;;
12950;SDS011;6540;50.858;7.232;2023-04-29T00:08:30;9.23;;;6.60;;
12950;SDS011;6540;50.858;7.232;2023-04-29T00:10:55;7.73;;;6.27;;
12950;SDS011;6540;50.858;7.232;2023-04-29T00:13:20;7.83;;;6.33;;
12950;SDS011;6540;50.858;7.232;2023-04-29T00:15:46;8.10;;;6.30;;
12950;SDS011;6540;50.858;7.232;2023-04-29T00:18:12;9.53;;;7.37;;
12950;SDS011;6540;50.858;7.232;2023-04-29T00:20:38;10.67;;;7.23;;
12950;SDS011;6540;50.858;7.232;2023-04-29T00:23:03;7.20;;;6.50;;
12950;SDS011;6540;50.858;7.232;2023-04-29T00:25:28;9.87;;;7.10;;
12950;SDS011;6540;50.858;7.232;2023-04-29T00:27:54;8.23;;;7.10;;
12950;SDS011;6540;50.858;7.232;2023-04-29T00:30:20;8.73;;;6.83;;
12950;SDS011;6540;50.858;7.232;2023-04-29T00:32:45;10.43;;;7.70;;
12950;SDS011;6540;50.858;7.232;2023-04-29T00:35:11;8.97;;;6.70;;
12950;SDS011;6540;50.858;7.232;2023-04-29T00:37:36;10.67;;;6.63;;
12950;SDS011;6540;50.858;7.232;2023-04-29T00:40:02;7.13;;;6.13;;
12950;SDS011;6540;50.858;7.232;2023-04-29T00:42:29;9.63;;;6.37;;
12950;SDS011;6540;50.858;7.232;2023-04-29T00:44:57;7.67;;;5.90;;
12950;SDS011;6540;50.858;7.232;2023-04-29T00:47:22;7.93;;;5.97;;
12950;SDS011;6540;50.858;7.232;2023-04-29T00:49:47;8.50;;;5.87;;
12950;SDS011;6540;50.858;7.232;2023-04-29T00:52:13;8.93;;;6.00;;
12950;SDS011;6540;50.858;7.232;2023-04-29T00:54:38;8.63;;;5.67;;
12950;SDS011;6540;50.858;7.232;2023-04-29T00:57:05;7.67;;;5.67;;
12950;SDS011;6540;50.858;7.232;2023-04-29T00:59:31;7.23;;;5.13;;
12950;SDS011;6540;50.858;7.232;2023-04-29T01:02:00;9.33;;;5.90;;
12950;SDS011;6540;50.858;7.232;2023-04-29T01:04:27;10.13;;;5.77;;
12950;SDS011;6540;50.858;7.232;2023-04-29T01:10:19;8.70;;;5.90;;
12950;SDS011;6540;50.858;7.232;2023-04-29T01:17:41;9.63;;;6.37;;
12950;SDS011;6540;50.858;7.232;2023-04-29T01:20:12;10.13;;;6.77;;
12950;SDS011;6540;50.858;7.232;2023-04-29T01:22:41;11.50;;;7.73;;
12950;SDS011;6540;50.858;7.232;2023-04-29T01:25:07;10.27;;;6.80;;
12950;SDS011;6540;50.858;7.232;2023-04-29T01:32:59;13.37;;;7.40;;
12950;SDS011;6540;50.858;7.232;2023-04-29T01:35:29;11.23;;;6.93;;
12950;SDS011;6540;50.858;7.232;2023-04-29T01:40:47;9.17;;;6.57;;
12950;SDS011;6540;50.858;7.232;2023-04-29T01:43:21;11.00;;;6.63;;
12950;SDS011;6540;50.858;7.232;2023-04-29T01:45:48;10.00;;;6.10;;
12950;SDS011;6540;50.858;7.232;2023-04-29T01:48:15;7.47;;;5.87;;
12950;SDS011;6540;50.858;7.232;2023-04-29T01:50:42;10.53;;;6.43;;
12950;SDS011;6540;50.858;7.232;2023-04-29T01:53:07;10.50;;;6.73;;
12950;SDS011;6540;50.858;7.232;2023-04-29T01:55:33;10.83;;;7.40;;
12950;SDS011;6540;50.858;7.232;2023-04-29T01:57:58;10.97;;;7.50;;
12950;SDS011;6540;50.858;7.232;2023-04-29T02:00:23;11.87;;;6.43;;
12950;SDS011;6540;50.858;7.232;2023-04-29T02:02:49;10.77;;;6.47;;
12950;SDS011;6540;50.858;7.232;2023-04-29T02:05:14;10.90;;;7.00;;
12950;SDS011;6540;50.858;7.232;2023-04-29T02:07:40;10.97;;;7.77;;
12950;SDS011;6540;50.858;7.232;2023-04-29T02:10:06;12.23;;;7.37;;
12950;SDS011;6540;50.858;7.232;2023-04-29T02:12:32;14.40;;;8.27;;
12950;SDS011;6540;50.858;7.232;2023-04-29T02:14:57;11.73;;;7.00;;
12950;SDS011;6540;50.858;7.232;2023-04-29T02:17:24;12.77;;;7.63;;
12950;SDS011;6540;50.858;7.232;2023-04-29T02:19:49;11.27;;;7.17;;
12950;SDS011;6540;50.858;7.232;2023-04-29T02:22:15;13.40;;;8.23;;
12950;SDS011;6540;50.858;7.232;2023-04-29T02:24:41;11.53;;;8.00;;
12950;SDS011;6540;50.858;7.232;2023-04-29T02:27:06;13.53;;;8.67;;
12950;SDS011;6540;50.858;7.232;2023-04-29T02:29:31;12.67;;;7.87;;
12950;SDS011;6540;50.858;7.232;2023-04-29T02:31:57;13.17;;;7.97;;
12950;SDS011;6540;50.858;7.232;2023-04-29T02:34:22;13.73;;;9.33;;
12950;SDS011;6540;50.858;7.232;2023-04-29T02:36:48;15.27;;;8.70;;
12950;SDS011;6540;50.858;7.232;2023-04-29T02:39:13;14.03;;;10.63;;
12950;SDS011;6540;50.858;7.232;2023-04-29T02:41:39;17.93;;;11.53;;
12950;SDS011;6540;50.858;7.232;2023-04-29T02:44:06;17.87;;;11.97;;
12950;SDS011;6540;50.858;7.232;2023-04-29T02:46:31;22.47;;;13.40;;
12950;SDS011;6540;50.858;7.232;2023-04-29T02:48:59;24.47;;;14.03;;
12950;SDS011;6540;50.858;7.232;2023-04-29T02:51:24;23.13;;;12.87;;
12950;SDS011;6540;50.858;7.232;2023-04-29T02:53:50;18.80;;;11.93;;
12950;SDS011;6540;50.858;7.232;2023-04-29T02:56:16;21.87;;;13.03;;
12950;SDS011;6540;50.858;7.232;2023-04-29T02:58:41;23.67;;;13.47;;
12950;SDS011;6540;50.858;7.232;2023-04-29T03:01:06;23.63;;;14.83;;
12950;SDS011;6540;50.858;7.232;2023-04-29T03:03:32;23.37;;;14.33;;
12950;SDS011;6540;50.858;7.232;2023-04-29T03:05:57;26.93;;;15.53;;
12950;SDS011;6540;50.858;7.232;2023-04-29T03:08:22;25.70;;;15.77;;
12950;SDS011;6540;50.858;7.232;2023-04-29T03:10:48;24.77;;;14.90;;
12950;SDS011;6540;50.858;7.232;2023-04-29T03:13:13;27.07;;;14.57;;
12950;SDS011;6540;50.858;7.232;2023-04-29T03:15:38;26.67;;;15.70;;
12950;SDS011;6540;50.858;7.232;2023-04-29T03:18:04;32.00;;;16.50;;
12950;SDS011;6540;50.858;7.232;2023-04-29T03:20:29;25.93;;;15.57;;
12950;SDS011;6540;50.858;7.232;2023-04-29T03:22:54;26.90;;;15.53;;
12950;SDS011;6540;50.858;7.232;2023-04-29T03:25:20;24.53;;;15.30;;
12950;SDS011;6540;50.858;7.232;2023-04-29T03:27:45;25.07;;;14.93;;
12950;SDS011;6540;50.858;7.232;2023-04-29T03:30:11;25.77;;;15.93;;
12950;SDS011;6540;50.858;7.232;2023-04-29T03:32:36;26.00;;;14.90;;
12950;SDS011;6540;50.858;7.232;2023-04-29T03:35:02;25.40;;;15.10;;
12950;SDS011;6540;50.858;7.232;2023-04-29T03:37:27;28.70;;;15.83;;
12950;SDS011;6540;50.858;7.232;2023-04-29T03:39:52;26.37;;;15.33;;
12950;SDS011;6540;50.858;7.232;2023-04-29T03:42:18;26.73;;;15.13;;
12950;SDS011;6540;50.858;7.232;2023-04-29T03:44:43;23.30;;;15.37;;
12950;SDS011;6540;50.858;7.232;2023-04-29T03:47:08;31.73;;;14.97;;
12950;SDS011;6540;50.858;7.232;2023-04-29T03:49:34;24.93;;;15.43;;
12950;SDS011;6540;50.858;7.232;2023-04-29T03:51:59;27.73;;;15.60;;
12950;SDS011;6540;50.858;7.232;2023-04-29T03:54:25;28.73;;;16.57;;
12950;SDS011;6540;50.858;7.232;2023-04-29T03:56:50;29.53;;;16.77;;
12950;SDS011;6540;50.858;7.232;2023-04-29T03:59:16;28.63;;;16.90;;
12950;SDS011;6540;50.858;7.232;2023-04-29T04:01:41;30.90;;;16.67;;
12950;SDS011;6540;50.858;7.232;2023-04-29T04:04:06;33.57;;;17.33;;
12950;SDS011;6540;50.858;7.232;2023-04-29T04:06:32;27.80;;;17.97;;
12950;SDS011;6540;50.858;7.232;2023-04-29T04:08:57;31.87;;;17.80;;
12950;SDS011;6540;50.858;7.232;2023-04-29T04:11:22;29.77;;;18.23;;
12950;SDS011;6540;50.858;7.232;2023-04-29T04:13:48;31.20;;;16.70;;
12950;SDS011;6540;50.858;7.232;2023-04-29T04:16:13;32.10;;;19.03;;
12950;SDS011;6540;50.858;7.232;2023-04-29T04:18:39;36.87;;;18.97;;
12950;SDS011;6540;50.858;7.232;2023-04-29T04:21:07;38.80;;;19.53;;
12950;SDS011;6540;50.858;7.232;2023-04-29T04:23:34;32.63;;;19.43;;
12950;SDS011;6540;50.858;7.232;2023-04-29T04:25:59;36.23;;;17.60;;
12950;SDS011;6540;50.858;7.232;2023-04-29T04:28:25;33.33;;;17.17;;
12950;SDS011;6540;50.858;7.232;2023-04-29T04:30:50;35.63;;;17.57;;
12950;SDS011;6540;50.858;7.232;2023-04-29T04:33:16;35.23;;;17.50;;
12950;SDS011;6540;50.858;7.232;2023-04-29T04:35:42;34.57;;;17.60;;
12950;SDS011;6540;50.858;7.232;2023-04-29T04:38:07;34.30;;;18.17;;
12950;SDS011;6540;50.858;7.232;2023-04-29T04:40:34;32.43;;;16.47;;
12950;SDS011;6540;50.858;7.232;2023-04-29T04:42:59;30.10;;;16.73;;
12950;SDS011;6540;50.858;7.232;2023-04-29T04:45:27;31.83;;;17.27;;
12950;SDS011;6540;50.858;7.232;2023-04-29T04:47:53;26.67;;;15.30;;
12950;SDS011;6540;50.858;7.232;2023-04-29T04:50:19;34.83;;;18.23;;
12950;SDS011;6540;50.858;7.232;2023-04-29T04:52:44;34.37;;;18.23;;
12950;SDS011;6540;50.858;7.232;2023-04-29T04:55:10;40.80;;;17.53;;
12950;SDS011;6540;50.858;7.232;2023-04-29T04:57:35;43.20;;;20.03;;
12950;SDS011;6540;50.858;7.232;2023-04-29T05:00:01;38.23;;;17.27;;
12950;SDS011;6540;50.858;7.232;2023-04-29T05:02:27;36.57;;;18.33;;
12950;SDS011;6540;50.858;7.232;2023-04-29T05:04:53;29.33;;;16.03;;
12950;SDS011;6540;50.858;7.232;2023-04-29T05:07:18;30.63;;;17.10;;
12950;SDS011;6540;50.858;7.232;2023-04-29T05:09:44;29.40;;;16.03;;
12950;SDS011;6540;50.858;7.232;2023-04-29T05:12:09;33.67;;;16.87;;
12950;SDS011;6540;50.858;7.232;2023-04-29T05:14:35;41.07;;;19.47;;
12950;SDS011;6540;50.858;7.232;2023-04-29T05:17:00;34.87;;;17.83;;
12950;SDS011;6540;50.858;7.232;2023-04-29T05:19:26;37.23;;;18.37;;
12950;SDS011;6540;50.858;7.232;2023-04-29T05:21:54;33.07;;;17.07;;
12950;SDS011;6540;50.858;7.232;2023-04-29T05:24:20;37.77;;;17.20;;
12950;SDS011;6540;50.858;7.232;2023-04-29T05:26:45;32.97;;;18.20;;
12950;SDS011;6540;50.858;7.232;2023-04-29T05:29:11;32.87;;;17.50;;
12950;SDS011;6540;50.858;7.232;2023-04-29T05:31:36;35.30;;;19.10;;
12950;SDS011;6540;50.858;7.232;2023-04-29T05:34:02;38.40;;;18.40;;
12950;SDS011;6540;50.858;7.232;2023-04-29T05:36:29;32.30;;;17.33;;
12950;SDS011;6540;50.858;7.232;2023-04-29T05:38:55;33.63;;;16.73;;
12950;SDS011;6540;50.858;7.232;2023-04-29T05:41:21;35.53;;;17.57;;
12950;SDS011;6540;50.858;7.232;2023-04-29T05:43:49;30.27;;;15.77;;
12950;SDS011;6540;50.858;7.232;2023-04-29T05:46:14;32.40;;;17.53;;
12950;SDS011;6540;50.858;7.232;2023-04-29T05:48:40;30.97;;;17.47;;
12950;SDS011;6540;50.858;7.232;2023-04-29T05:51:06;29.70;;;15.80;;
12950;SDS011;6540;50.858;7.232;2023-04-29T05:53:31;30.73;;;15.10;;
12950;SDS011;6540;50.858;7.232;2023-04-29T05:55:57;32.10;;;16.20;;
12950;SDS011;6540;50.858;7.232;2023-04-29T05:58:22;32.77;;;14.93;;
12950;SDS011;6540;50.858;7.232;2023-04-29T06:00:49;26.83;;;15.60;;
12950;SDS011;6540;50.858;7.232;2023-04-29T06:03:15;26.63;;;14.70;;
12950;SDS011;6540;50.858;7.232;2023-04-29T06:05:40;24.07;;;13.43;;
12950;SDS011;6540;50.858;7.232;2023-04-29T06:08:06;23.27;;;12.67;;
12950;SDS011;6540;50.858;7.232;2023-04-29T06:10:31;23.40;;;13.80;;
12950;SDS011;6540;50.858;7.232;2023-04-29T06:12:58;22.63;;;13.27;;
12950;SDS011;6540;50.858;7.232;2023-04-29T06:15:23;22.30;;;13.57;;
12950;SDS011;6540;50.858;7.232;2023-04-29T06:17:48;27.43;;;15.60;;
12950;SDS011;6540;50.858;7.232;2023-04-29T06:20:14;20.80;;;12.17;;
12950;SDS011;6540;50.858;7.232;2023-04-29T06:22:39;21.63;;;12.90;;
12950;SDS011;6540;50.858;7.232;2023-04-29T06:25:06;24.27;;;13.70;;
12950;SDS011;6540;50.858;7.232;2023-04-29T06:27:31;21.60;;;13.07;;
12950;SDS011;6540;50.858;7.232;2023-04-29T06:29:57;26.90;;;13.07;;
12950;SDS011;6540;50.858;7.232;2023-04-29T06:32:22;24.43;;;13.93;;
12950;SDS011;6540;50.858;7.232;2023-04-29T06:34:48;23.23;;;12.77;;
12950;SDS011;6540;50.858;7.232;2023-04-29T06:37:14;23.80;;;13.40;;
12950;SDS011;6540;50.858;7.232;2023-04-29T06:39:39;27.33;;;15.17;;
12950;SDS011;6540;50.858;7.232;2023-04-29T06:42:04;28.93;;;13.93;;
12950;SDS011;6540;50.858;7.232;2023-04-29T06:44:30;19.87;;;13.10;;
12950;SDS011;6540;50.858;7.232;2023-04-29T06:46:55;24.30;;;13.63;;
12950;SDS011;6540;50.858;7.232;2023-04-29T06:49:21;31.60;;;14.73;;
12950;SDS011;6540;50.858;7.232;2023-04-29T06:51:46;22.57;;;13.10;;
12950;SDS011;6540;50.858;7.232;2023-04-29T06:54:11;22.43;;;12.67;;
12950;SDS011;6540;50.858;7.232;2023-04-29T06:56:37;18.93;;;12.77;;
12950;SDS011;6540;50.858;7.232;2023-04-29T06:59:02;22.07;;;12.37;;
12950;SDS011;6540;50.858;7.232;2023-04-29T07:01:28;23.10;;;11.60;;
12950;SDS011;6540;50.858;7.232;2023-04-29T07:03:53;18.93;;;12.47;;
12950;SDS011;6540;50.858;7.232;2023-04-29T07:06:19;22.83;;;13.23;;
12950;SDS011;6540;50.858;7.232;2023-04-29T07:08:44;19.77;;;12.13;;
12950;SDS011;6540;50.858;7.232;2023-04-29T07:11:10;19.40;;;11.73;;
12950;SDS011;6540;50.858;7.232;2023-04-29T07:13:36;17.87;;;12.07;;
12950;SDS011;6540;50.858;7.232;2023-04-29T07:16:01;20.13;;;11.53;;
12950;SDS011;6540;50.858;7.232;2023-04-29T07:18:26;20.17;;;11.93;;
12950;SDS011;6540;50.858;7.232;2023-04-29T07:20:52;15.87;;;10.03;;
12950;SDS011;6540;50.858;7.232;2023-04-29T07:23:19;18.30;;;11.10;;
12950;SDS011;6540;50.858;7.232;2023-04-29T07:25:44;16.77;;;10.90;;
12950;SDS011;6540;50.858;7.232;2023-04-29T07:28:10;22.10;;;12.97;;
12950;SDS011;6540;50.858;7.232;2023-04-29T07:30:35;22.63;;;11.23;;
12950;SDS011;6540;50.858;7.232;2023-04-29T07:33:01;18.10;;;12.50;;
12950;SDS011;6540;50.858;7.232;2023-04-29T07:35:28;17.50;;;10.97;;
12950;SDS011;6540;50.858;7.232;2023-04-29T07:37:54;19.90;;;11.10;;
12950;SDS011;6540;50.858;7.232;2023-04-29T07:40:22;17.63;;;10.87;;
12950;SDS011;6540;50.858;7.232;2023-04-29T07:42:47;18.43;;;11.03;;
12950;SDS011;6540;50.858;7.232;2023-04-29T07:45:12;22.97;;;12.17;;
12950;SDS011;6540;50.858;7.232;2023-04-29T07:47:39;18.70;;;11.23;;
12950;SDS011;6540;50.858;7.232;2023-04-29T07:50:04;17.70;;;11.60;;
12950;SDS011;6540;50.858;7.232;2023-04-29T07:52:30;17.80;;;11.60;;
12950;SDS011;6540;50.858;7.232;2023-04-29T07:54:56;17.93;;;11.73;;
12950;SDS011;6540;50.858;7.232;2023-04-29T07:57:21;21.07;;;13.03;;
12950;SDS011;6540;50.858;7.232;2023-04-29T07:59:50;17.57;;;11.77;;
12950;SDS011;6540;50.858;7.232;2023-04-29T08:02:16;19.20;;;11.77;;
12950;SDS011;6540;50.858;7.232;2023-04-29T08:04:42;19.10;;;12.00;;
12950;SDS011;6540;50.858;7.232;2023-04-29T08:07:07;19.97;;;12.37;;
12950;SDS011;6540;50.858;7.232;2023-04-29T08:09:33;17.47;;;11.67;;
12950;SDS011;6540;50.858;7.232;2023-04-29T08:11:58;18.63;;;11.90;;
12950;SDS011;6540;50.858;7.232;2023-04-29T08:14:24;19.13;;;12.93;;
12950;SDS011;6540;50.858;7.232;2023-04-29T08:16:49;20.23;;;12.67;;
12950;SDS011;6540;50.858;7.232;2023-04-29T08:19:14;18.53;;;13.37;;
12950;SDS011;6540;50.858;7.232;2023-04-29T08:21:40;19.27;;;13.27;;
12950;SDS011;6540;50.858;7.232;2023-04-29T08:24:05;19.10;;;11.70;;
12950;SDS011;6540;50.858;7.232;2023-04-29T08:26:30;20.20;;;13.07;;
12950;SDS011;6540;50.858;7.232;2023-04-29T08:28:56;15.97;;;11.93;;
12950;SDS011;6540;50.858;7.232;2023-04-29T08:31:21;23.40;;;14.27;;
12950;SDS011;6540;50.858;7.232;2023-04-29T08:33:47;22.13;;;13.83;;
12950;SDS011;6540;50.858;7.232;2023-04-29T08:36:13;21.13;;;14.43;;
12950;SDS011;6540;50.858;7.232;2023-04-29T08:38:38;20.83;;;13.93;;
12950;SDS011;6540;50.858;7.232;2023-04-29T08:41:07;22.13;;;14.40;;
12950;SDS011;6540;50.858;7.232;2023-04-29T08:43:36;23.03;;;14.87;;
12950;SDS011;6540;50.858;7.232;2023-04-29T08:46:02;21.60;;;14.90;;
12950;SDS011;6540;50.858;7.232;2023-04-29T08:48:28;27.53;;;15.70;;
12950;SDS011;6540;50.858;7.232;2023-04-29T08:50:54;23.20;;;15.73;;
12950;SDS011;6540;50.858;7.232;2023-04-29T08:53:22;19.63;;;14.60;;
12950;SDS011;6540;50.858;7.232;2023-04-29T08:55:47;25.53;;;15.53;;
12950;SDS011;6540;50.858;7.232;2023-04-29T08:58:14;23.83;;;14.60;;
12950;SDS011;6540;50.858;7.232;2023-04-29T09:00:43;19.97;;;14.33;;
12950;SDS011;6540;50.858;7.232;2023-04-29T09:05:51;28.10;;;15.17;;
12950;SDS011;6540;50.858;7.232;2023-04-29T09:08:19;20.30;;;14.03;;
12950;SDS011;6540;50.858;7.232;2023-04-29T09:10:48;20.33;;;12.87;;
12950;SDS011;6540;50.858;7.232;2023-04-29T09:13:25;21.73;;;14.77;;
12950;SDS011;6540;50.858;7.232;2023-04-29T09:15:52;22.23;;;14.40;;
12950;SDS011;6540;50.858;7.232;2023-04-29T09:21:15;18.80;;;12.87;;
12950;SDS011;6540;50.858;7.232;2023-04-29T09:23:43;20.87;;;12.97;;
12950;SDS011;6540;50.858;7.232;2023-04-29T09:26:09;19.97;;;12.43;;
12950;SDS011;6540;50.858;7.232;2023-04-29T09:28:35;19.93;;;12.70;;
12950;SDS011;6540;50.858;7.232;2023-04-29T09:31:01;21.00;;;13.73;;
12950;SDS011;6540;50.858;7.232;2023-04-29T09:33:30;16.90;;;11.73;;
12950;SDS011;6540;50.858;7.232;2023-04-29T09:35:56;17.57;;;11.53;;
12950;SDS011;6540;50.858;7.232;2023-04-29T09:38:21;18.83;;;12.57;;
12950;SDS011;6540;50.858;7.232;2023-04-29T09:40:47;17.43;;;11.47;;
12950;SDS011;6540;50.858;7.232;2023-04-29T09:43:16;17.83;;;10.97;;
12950;SDS011;6540;50.858;7.232;2023-04-29T09:45:46;15.40;;;11.13;;
12950;SDS011;6540;50.858;7.232;2023-04-29T09:48:12;17.20;;;12.80;;
12950;SDS011;6540;50.858;7.232;2023-04-29T09:50:40;16.00;;;11.33;;
12950;SDS011;6540;50.858;7.232;2023-04-29T09:53:08;22.40;;;13.63;;
12950;SDS011;6540;50.858;7.232;2023-04-29T09:55:35;21.00;;;13.30;;
12950;SDS011;6540;50.858;7.232;2023-04-29T09:58:01;20.87;;;14.07;;
12950;SDS011;6540;50.858;7.232;2023-04-29T10:00:29;19.30;;;13.13;;
12950;SDS011;6540;50.858;7.232;2023-04-29T10:02:57;20.53;;;14.03;;
12950;SDS011;6540;50.858;7.232;2023-04-29T10:05:25;23.13;;;12.50;;
12950;SDS011;6540;50.858;7.232;2023-04-29T10:07:52;20.87;;;13.37;;
12950;SDS011;6540;50.858;7.232;2023-04-29T10:10:19;19.33;;;12.93;;
12950;SDS011;6540;50.858;7.232;2023-04-29T10:12:45;18.47;;;12.97;;
12950;SDS011;6540;50.858;7.232;2023-04-29T10:20:50;18.60;;;13.63;;
12950;SDS011;6540;50.858;7.232;2023-04-29T10:23:16;17.23;;;13.37;;
12950;SDS011;6540;50.858;7.232;2023-04-29T10:25:43;23.70;;;14.73;;
12950;SDS011;6540;50.858;7.232;2023-04-29T10:28:13;19.00;;;13.37;;
12950;SDS011;6540;50.858;7.232;2023-04-29T10:30:44;21.73;;;13.30;;
12950;SDS011;6540;50.858;7.232;2023-04-29T10:33:12;21.53;;;13.90;;
12950;SDS011;6540;50.858;7.232;2023-04-29T10:35:41;22.37;;;15.47;;
12950;SDS011;6540;50.858;7.232;2023-04-29T10:38:10;20.50;;;14.03;;
12950;SDS011;6540;50.858;7.232;2023-04-29T10:40:43;26.67;;;15.70;;
12950;SDS011;6540;50.858;7.232;2023-04-29T10:43:12;23.63;;;15.50;;
12950;SDS011;6540;50.858;7.232;2023-04-29T10:45:37;22.80;;;14.40;;
12950;SDS011;6540;50.858;7.232;2023-04-29T10:53:16;18.67;;;13.37;;
12950;SDS011;6540;50.858;7.232;2023-04-29T10:55:47;20.00;;;13.60;;
12950;SDS011;6540;50.858;7.232;2023-04-29T11:01:00;18.80;;;13.83;;
12950;SDS011;6540;50.858;7.232;2023-04-29T11:06:10;23.43;;;15.77;;
12950;SDS011;6540;50.858;7.232;2023-04-29T11:08:48;22.97;;;16.03;;
12950;SDS011;6540;50.858;7.232;2023-04-29T11:14:13;27.73;;;16.23;;
12950;SDS011;6540;50.858;7.232;2023-04-29T11:16:47;22.70;;;16.60;;
12950;SDS011;6540;50.858;7.232;2023-04-29T11:19:15;27.43;;;17.33;;
12950;SDS011;6540;50.858;7.232;2023-04-29T11:21:41;24.00;;;16.67;;
12950;SDS011;6540;50.858;7.232;2023-04-29T11:24:09;28.97;;;19.13;;
12950;SDS011;6540;50.858;7.232;2023-04-29T11:26:36;29.97;;;18.70;;
12950;SDS011;6540;50.858;7.232;2023-04-29T11:29:02;28.73;;;17.53;;
12950;SDS011;6540;50.858;7.232;2023-04-29T11:31:29;34.07;;;20.60;;
12950;SDS011;6540;50.858;7.232;2023-04-29T11:33:55;29.53;;;18.50;;
12950;SDS011;6540;50.858;7.232;2023-04-29T11:36:21;35.47;;;20.70;;
12950;SDS011;6540;50.858;7.232;2023-04-29T11:38:46;33.43;;;21.03;;
12950;SDS011;6540;50.858;7.232;2023-04-29T11:41:11;33.27;;;20.53;;
12950;SDS011;6540;50.858;7.232;2023-04-29T11:43:38;28.20;;;17.30;;
12950;SDS011;6540;50.858;7.232;2023-04-29T11:46:10;32.67;;;19.77;;
12950;SDS011;6540;50.858;7.232;2023-04-29T11:48:36;28.50;;;19.00;;
12950;SDS011;6540;50.858;7.232;2023-04-29T11:51:01;31.67;;;18.70;;
12950;SDS011;6540;50.858;7.232;2023-04-29T11:53:27;31.10;;;20.03;;
12950;SDS011;6540;50.858;7.232;2023-04-29T11:55:53;30.60;;;19.00;;
12950;SDS011;6540;50.858;7.232;2023-04-29T11:58:19;32.27;;;18.10;;
12950;SDS011;6540;50.858;7.232;2023-04-29T12:00:48;31.07;;;18.57;;
12950;SDS011;6540;50.858;7.232;2023-04-29T12:03:15;30.23;;;17.73;;
12950;SDS011;6540;50.858;7.232;2023-04-29T12:05:45;26.67;;;16.97;;
12950;SDS011;6540;50.858;7.232;2023-04-29T12:08:21;23.53;;;15.40;;
12950;SDS011;6540;50.858;7.232;2023-04-29T12:10:54;31.17;;;18.70;;
12950;SDS011;6540;50.858;7.232;2023-04-29T12:13:30;25.37;;;15.47;;
12950;SDS011;6540;50.858;7.232;2023-04-29T12:15:56;32.60;;;18.20;;
12950;SDS011;6540;50.858;7.232;2023-04-29T12:18:22;30.50;;;18.27;;
12950;SDS011;6540;50.858;7.232;2023-04-29T12:20:48;32.40;;;17.10;;
12950;SDS011;6540;50.858;7.232;2023-04-29T12:23:22;28.70;;;17.37;;
12950;SDS011;6540;50.858;7.232;2023-04-29T12:25:54;27.60;;;16.37;;
12950;SDS011;6540;50.858;7.232;2023-04-29T12:28:21;29.07;;;15.43;;
12950;SDS011;6540;50.858;7.232;2023-04-29T12:30:48;32.10;;;17.33;;
12950;SDS011;6540;50.858;7.232;2023-04-29T12:33:25;32.17;;;17.17;;
12950;SDS011;6540;50.858;7.232;2023-04-29T12:35:56;32.17;;;17.87;;
12950;SDS011;6540;50.858;7.232;2023-04-29T12:38:24;34.90;;;18.23;;
12950;SDS011;6540;50.858;7.232;2023-04-29T12:40:54;25.13;;;16.73;;
12950;SDS011;6540;50.858;7.232;2023-04-29T12:43:27;32.47;;;16.70;;
12950;SDS011;6540;50.858;7.232;2023-04-29T12:45:53;30.50;;;17.63;;
12950;SDS011;6540;50.858;7.232;2023-04-29T12:48:28;29.77;;;17.33;;
12950;SDS011;6540;50.858;7.232;2023-04-29T12:50:55;24.33;;;16.30;;
12950;SDS011;6540;50.858;7.232;2023-04-29T12:53:22;31.87;;;19.73;;
12950;SDS011;6540;50.858;7.232;2023-04-29T12:55:48;27.40;;;16.70;;
12950;SDS011;6540;50.858;7.232;2023-04-29T12:58:13;28.07;;;15.23;;
12950;SDS011;6540;50.858;7.232;2023-04-29T13:00:38;26.63;;;16.53;;
12950;SDS011;6540;50.858;7.232;2023-04-29T13:03:04;28.63;;;15.53;;
12950;SDS011;6540;50.858;7.232;2023-04-29T13:05:29;24.10;;;16.00;;
12950;SDS011;6540;50.858;7.232;2023-04-29T13:07:55;26.53;;;15.73;;
12950;SDS011;6540;50.858;7.232;2023-04-29T13:10:29;24.70;;;14.53;;
12950;SDS011;6540;50.858;7.232;2023-04-29T13:13:18;21.07;;;13.07;;
12950;SDS011;6540;50.858;7.232;2023-04-29T13:15:44;21.23;;;13.23;;
12950;SDS011;6540;50.858;7.232;2023-04-29T13:18:10;28.37;;;16.07;;
12950;SDS011;6540;50.858;7.232;2023-04-29T13:20:35;19.33;;;13.00;;
12950;SDS011;6540;50.858;7.232;2023-04-29T13:23:01;23.63;;;12.90;;
12950;SDS011;6540;50.858;7.232;2023-04-29T13:25:26;19.90;;;12.87;;
12950;SDS011;6540;50.858;7.232;2023-04-29T13:27:51;23.27;;;14.50;;
12950;SDS011;6540;50.858;7.232;2023-04-29T13:30:17;20.53;;;13.87;;
12950;SDS011;6540;50.858;7.232;2023-04-29T13:32:42;20.47;;;12.73;;
12950;SDS011;6540;50.858;7.232;2023-04-29T13:35:08;19.07;;;12.90;;
12950;SDS011;6540;50.858;7.232;2023-04-29T13:37:34;21.53;;;13.97;;
12950;SDS011;6540;50.858;7.232;2023-04-29T13:40:02;19.90;;;13.13;;
12950;SDS011;6540;50.858;7.232;2023-04-29T13:42:28;19.40;;;11.60;;
12950;SDS011;6540;50.858;7.232;2023-04-29T13:44:53;18.90;;;12.10;;
12950;SDS011;6540;50.858;7.232;2023-04-29T13:47:21;19.77;;;12.57;;
12950;SDS011;6540;50.858;7.232;2023-04-29T13:49:47;21.33;;;15.20;;
12950;SDS011;6540;50.858;7.232;2023-04-29T13:52:12;19.33;;;12.87;;
12950;SDS011;6540;50.858;7.232;2023-04-29T13:54:38;18.27;;;12.03;;
12950;SDS011;6540;50.858;7.232;2023-04-29T13:57:04;21.13;;;13.17;;
12950;SDS011;6540;50.858;7.232;2023-04-29T13:59:33;20.63;;;12.43;;
12950;SDS011;6540;50.858;7.232;2023-04-29T14:02:00;18.80;;;13.37;;
12950;SDS011;6540;50.858;7.232;2023-04-29T14:04:26;22.33;;;12.50;;
12950;SDS011;6540;50.858;7.232;2023-04-29T14:06:53;19.47;;;12.90;;
12950;SDS011;6540;50.858;7.232;2023-04-29T14:09:19;19.13;;;12.47;;
12950;SDS011;6540;50.858;7.232;2023-04-29T14:11:46;16.33;;;11.97;;
12950;SDS011;6540;50.858;7.232;2023-04-29T14:14:12;22.10;;;13.33;;
12950;SDS011;6540;50.858;7.232;2023-04-29T14:16:37;19.43;;;12.47;;
12950;SDS011;6540;50.858;7.232;2023-04-29T14:19:03;18.13;;;12.23;;
12950;SDS011;6540;50.858;7.232;2023-04-29T14:21:29;18.10;;;12.07;;
12950;SDS011;6540;50.858;7.232;2023-04-29T14:24:05;18.80;;;11.77;;
12950;SDS011;6540;50.858;7.232;2023-04-29T14:26:43;20.17;;;12.23;;
12950;SDS011;6540;50.858;7.232;2023-04-29T14:29:08;18.53;;;11.83;;
12950;SDS011;6540;50.858;7.232;2023-04-29T14:31:36;19.20;;;12.03;;
12950;SDS011;6540;50.858;7.232;2023-04-29T14:34:02;22.30;;;13.23;;
12950;SDS011;6540;50.858;7.232;2023-04-29T14:39:45;19.50;;;12.23;;
12950;SDS011;6540;50.858;7.232;2023-04-29T14:42:11;20.80;;;13.23;;
12950;SDS011;6540;50.858;7.232;2023-04-29T14:44:37;19.97;;;12.63;;
12950;SDS011;6540;50.858;7.232;2023-04-29T14:47:03;20.27;;;13.10;;
12950;SDS011;6540;50.858;7.232;2023-04-29T14:49:28;18.20;;;12.27;;
12950;SDS011;6540;50.858;7.232;2023-04-29T14:51:54;22.63;;;13.20;;
12950;SDS011;6540;50.858;7.232;2023-04-29T14:54:20;20.63;;;13.17;;
12950;SDS011;6540;50.858;7.232;2023-04-29T14:56:45;19.87;;;13.53;;
12950;SDS011;6540;50.858;7.232;2023-04-29T14:59:10;21.33;;;12.53;;
12950;SDS011;6540;50.858;7.232;2023-04-29T15:01:36;23.50;;;13.73;;
12950;SDS011;6540;50.858;7.232;2023-04-29T15:04:02;20.90;;;12.93;;
12950;SDS011;6540;50.858;7.232;2023-04-29T15:06:28;22.87;;;13.63;;
12950;SDS011;6540;50.858;7.232;2023-04-29T15:08:53;20.37;;;12.83;;
12950;SDS011;6540;50.858;7.232;2023-04-29T15:11:20;16.20;;;11.93;;
12950;SDS011;6540;50.858;7.232;2023-04-29T15:13:45;24.13;;;13.03;;
12950;SDS011;6540;50.858;7.232;2023-04-29T15:16:11;28.83;;;14.50;;
12950;SDS011;6540;50.858;7.232;2023-04-29T15:18:36;26.03;;;12.63;;